sensor_id;sensor_type;location;lat;lon;timestamp;pressure;altitude;pressure_sealevel;temperature
69545;BMP180;56766;52.260;20.746;2022-12-10T00:01:37;99493.60;;;0.66
69545;BMP180;56766;52.260;20.746;2022-12-10T00:04:04;99489.20;;;0.70
69545;BMP180;56766;52.260;20.746;2022-12-10T00:06:34;99484.80;;;0.70
69545;BMP180;56766;52.260;20.746;2022-12-10T00:09:06;99482.20;;;0.70
69545;BMP180;56766;52.260;20.746;2022-12-10T00:11:33;99476.00;;;0.70
69545;BMP180;56766;52.260;20.746;2022-12-10T00:13:59;99476.80;;;0.70
69545;BMP180;56766;52.260;20.746;2022-12-10T00:16:28;99483.00;;;0.70
69545;BMP180;56766;52.260;20.746;2022-12-10T00:18:56;99479.60;;;0.70
69545;BMP180;56766;52.260;20.746;2022-12-10T00:21:27;99479.20;;;0.70
69545;BMP180;56766;52.260;20.746;2022-12-10T00:23:56;99479.20;;;0.68
69545;BMP180;56766;52.260;20.746;2022-12-10T00:26:31;99474.80;;;0.62
69545;BMP180;56766;52.260;20.746;2022-12-10T00:29:01;99478.00;;;0.60
69545;BMP180;56766;52.260;20.746;2022-12-10T00:31:32;99479.60;;;0.62
69545;BMP180;56766;52.260;20.746;2022-12-10T00:34:04;99475.40;;;0.64
69545;BMP180;56766;52.260;20.746;2022-12-10T00:36:41;99480.20;;;0.64
69545;BMP180;56766;52.260;20.746;2022-12-10T00:39:12;99473.20;;;0.60
69545;BMP180;56766;52.260;20.746;2022-12-10T00:41:40;99475.60;;;0.60
69545;BMP180;56766;52.260;20.746;2022-12-10T00:44:08;99473.20;;;0.64
69545;BMP180;56766;52.260;20.746;2022-12-10T00:46:35;99478.80;;;0.68
69545;BMP180;56766;52.260;20.746;2022-12-10T00:49:02;99479.40;;;0.70
69545;BMP180;56766;52.260;20.746;2022-12-10T00:51:30;99477.20;;;0.64
69545;BMP180;56766;52.260;20.746;2022-12-10T00:53:59;99480.80;;;0.68
69545;BMP180;56766;52.260;20.746;2022-12-10T00:56:31;99485.20;;;0.60
69545;BMP180;56766;52.260;20.746;2022-12-10T00:59:00;99482.40;;;0.64
69545;BMP180;56766;52.260;20.746;2022-12-10T01:04:01;99484.40;;;0.62
69545;BMP180;56766;52.260;20.746;2022-12-10T01:06:45;99489.80;;;0.68
69545;BMP180;56766;52.260;20.746;2022-12-10T01:09:17;99488.20;;;0.64
69545;BMP180;56766;52.260;20.746;2022-12-10T01:11:47;99486.40;;;0.68
69545;BMP180;56766;52.260;20.746;2022-12-10T01:14:26;99490.40;;;0.66
69545;BMP180;56766;52.260;20.746;2022-12-10T01:16:56;99491.20;;;0.66
69545;BMP180;56766;52.260;20.746;2022-12-10T01:19:24;99483.60;;;0.70
69545;BMP180;56766;52.260;20.746;2022-12-10T01:21:52;99482.20;;;0.70
69545;BMP180;56766;52.260;20.746;2022-12-10T01:24:21;99486.60;;;0.70
69545;BMP180;56766;52.260;20.746;2022-12-10T01:26:48;99485.00;;;0.70
69545;BMP180;56766;52.260;20.746;2022-12-10T01:29:16;99485.60;;;0.70
69545;BMP180;56766;52.260;20.746;2022-12-10T01:31:43;99476.60;;;0.62
69545;BMP180;56766;52.260;20.746;2022-12-10T01:34:13;99467.60;;;0.64
69545;BMP180;56766;52.260;20.746;2022-12-10T01:36:44;99466.00;;;0.66
69545;BMP180;56766;52.260;20.746;2022-12-10T01:39:15;99465.00;;;0.70
69545;BMP180;56766;52.260;20.746;2022-12-10T01:41:49;99461.40;;;0.64
69545;BMP180;56766;52.260;20.746;2022-12-10T01:46:46;99458.60;;;0.70
69545;BMP180;56766;52.260;20.746;2022-12-10T01:49:18;99457.40;;;0.70
69545;BMP180;56766;52.260;20.746;2022-12-10T01:51:54;99449.80;;;0.70
69545;BMP180;56766;52.260;20.746;2022-12-10T01:54:32;99451.40;;;0.70
69545;BMP180;56766;52.260;20.746;2022-12-10T01:57:46;99452.00;;;0.70
69545;BMP180;56766;52.260;20.746;2022-12-10T02:00:04;99445.40;;;0.70
69545;BMP180;56766;52.260;20.746;2022-12-10T02:02:54;99448.00;;;0.70
69545;BMP180;56766;52.260;20.746;2022-12-10T02:05:40;99455.60;;;0.70
69545;BMP180;56766;52.260;20.746;2022-12-10T02:08:33;99453.60;;;0.70
69545;BMP180;56766;52.260;20.746;2022-12-10T02:11:17;99459.80;;;0.80
69545;BMP180;56766;52.260;20.746;2022-12-10T02:14:30;99458.80;;;0.80
69545;BMP180;56766;52.260;20.746;2022-12-10T02:17:43;99458.60;;;0.80
69545;BMP180;56766;52.260;20.746;2022-12-10T02:20:24;99459.80;;;0.80
69545;BMP180;56766;52.260;20.746;2022-12-10T02:23:04;99455.20;;;0.80
69545;BMP180;56766;52.260;20.746;2022-12-10T02:30:53;99456.80;;;0.76
69545;BMP180;56766;52.260;20.746;2022-12-10T02:33:25;99456.80;;;0.72
69545;BMP180;56766;52.260;20.746;2022-12-10T02:35:57;99466.80;;;0.80
69545;BMP180;56766;52.260;20.746;2022-12-10T02:38:31;99464.80;;;0.80
69545;BMP180;56766;52.260;20.746;2022-12-10T02:41:06;99459.60;;;0.78
69545;BMP180;56766;52.260;20.746;2022-12-10T02:43:35;99456.80;;;0.74
69545;BMP180;56766;52.260;20.746;2022-12-10T02:46:05;99458.80;;;0.74
69545;BMP180;56766;52.260;20.746;2022-12-10T02:48:35;99459.40;;;0.76
69545;BMP180;56766;52.260;20.746;2022-12-10T02:51:02;99465.60;;;0.80
69545;BMP180;56766;52.260;20.746;2022-12-10T02:53:29;99469.60;;;0.80
69545;BMP180;56766;52.260;20.746;2022-12-10T02:56:37;99470.80;;;0.80
69545;BMP180;56766;52.260;20.746;2022-12-10T02:59:33;99467.00;;;0.80
69545;BMP180;56766;52.260;20.746;2022-12-10T03:02:19;99462.60;;;0.76
69545;BMP180;56766;52.260;20.746;2022-12-10T03:05:26;99459.20;;;0.78
69545;BMP180;56766;52.260;20.746;2022-12-10T03:08:10;99458.80;;;0.70
69545;BMP180;56766;52.260;20.746;2022-12-10T03:11:26;99455.80;;;0.70
69545;BMP180;56766;52.260;20.746;2022-12-10T03:14:15;99458.20;;;0.70
69545;BMP180;56766;52.260;20.746;2022-12-10T03:16:56;99458.00;;;0.70
69545;BMP180;56766;52.260;20.746;2022-12-10T03:19:47;99462.40;;;0.70
69545;BMP180;56766;52.260;20.746;2022-12-10T03:22:19;99462.40;;;0.70
69545;BMP180;56766;52.260;20.746;2022-12-10T03:24:48;99464.80;;;0.70
69545;BMP180;56766;52.260;20.746;2022-12-10T03:27:19;99464.40;;;0.70
69545;BMP180;56766;52.260;20.746;2022-12-10T03:29:57;99463.00;;;0.70
69545;BMP180;56766;52.260;20.746;2022-12-10T03:32:28;99452.00;;;0.70
69545;BMP180;56766;52.260;20.746;2022-12-10T03:34:58;99454.40;;;0.70
69545;BMP180;56766;52.260;20.746;2022-12-10T03:37:28;99456.00;;;0.70
69545;BMP180;56766;52.260;20.746;2022-12-10T03:39:58;99462.00;;;0.70
69545;BMP180;56766;52.260;20.746;2022-12-10T03:42:25;99464.80;;;0.66
69545;BMP180;56766;52.260;20.746;2022-12-10T03:44:52;99459.00;;;0.70
69545;BMP180;56766;52.260;20.746;2022-12-10T03:47:20;99459.60;;;0.70
69545;BMP180;56766;52.260;20.746;2022-12-10T03:49:47;99458.00;;;0.70
69545;BMP180;56766;52.260;20.746;2022-12-10T03:52:13;99459.20;;;0.68
69545;BMP180;56766;52.260;20.746;2022-12-10T03:54:41;99458.20;;;0.66
69545;BMP180;56766;52.260;20.746;2022-12-10T03:57:07;99461.00;;;0.60
69545;BMP180;56766;52.260;20.746;2022-12-10T03:59:34;99467.60;;;0.64
69545;BMP180;56766;52.260;20.746;2022-12-10T04:02:02;99465.80;;;0.64
69545;BMP180;56766;52.260;20.746;2022-12-10T04:04:30;99467.80;;;0.70
69545;BMP180;56766;52.260;20.746;2022-12-10T04:06:57;99460.20;;;0.70
69545;BMP180;56766;52.260;20.746;2022-12-10T04:09:23;99464.20;;;0.70
69545;BMP180;56766;52.260;20.746;2022-12-10T04:11:56;99465.60;;;0.70
69545;BMP180;56766;52.260;20.746;2022-12-10T04:14:24;99469.80;;;0.70
69545;BMP180;56766;52.260;20.746;2022-12-10T04:17:09;99468.40;;;0.70
69545;BMP180;56766;52.260;20.746;2022-12-10T04:19:37;99464.40;;;0.70
69545;BMP180;56766;52.260;20.746;2022-12-10T04:22:03;99470.20;;;0.70
69545;BMP180;56766;52.260;20.746;2022-12-10T04:24:49;99461.60;;;0.60
69545;BMP180;56766;52.260;20.746;2022-12-10T04:27:39;99465.00;;;0.60
69545;BMP180;56766;52.260;20.746;2022-12-10T04:30:10;99466.00;;;0.60
69545;BMP180;56766;52.260;20.746;2022-12-10T04:32:38;99465.80;;;0.60
69545;BMP180;56766;52.260;20.746;2022-12-10T04:35:05;99469.40;;;0.60
69545;BMP180;56766;52.260;20.746;2022-12-10T04:37:32;99465.80;;;0.60
69545;BMP180;56766;52.260;20.746;2022-12-10T04:39:59;99465.20;;;0.60
69545;BMP180;56766;52.260;20.746;2022-12-10T04:42:26;99462.00;;;0.60
69545;BMP180;56766;52.260;20.746;2022-12-10T04:44:53;99469.20;;;0.62
69545;BMP180;56766;52.260;20.746;2022-12-10T04:47:19;99465.20;;;0.60
69545;BMP180;56766;52.260;20.746;2022-12-10T04:49:46;99468.80;;;0.60
69545;BMP180;56766;52.260;20.746;2022-12-10T04:52:15;99474.00;;;0.60
69545;BMP180;56766;52.260;20.746;2022-12-10T04:54:43;99474.40;;;0.60
69545;BMP180;56766;52.260;20.746;2022-12-10T04:57:11;99470.60;;;0.60
69545;BMP180;56766;52.260;20.746;2022-12-10T04:59:38;99472.60;;;0.60
69545;BMP180;56766;52.260;20.746;2022-12-10T05:02:05;99474.40;;;0.60
69545;BMP180;56766;52.260;20.746;2022-12-10T05:04:33;99470.40;;;0.60
69545;BMP180;56766;52.260;20.746;2022-12-10T05:07:00;99471.00;;;0.60
69545;BMP180;56766;52.260;20.746;2022-12-10T05:09:27;99467.80;;;0.60
69545;BMP180;56766;52.260;20.746;2022-12-10T05:11:54;99477.20;;;0.60
69545;BMP180;56766;52.260;20.746;2022-12-10T05:14:20;99480.40;;;0.60
69545;BMP180;56766;52.260;20.746;2022-12-10T05:16:50;99482.80;;;0.60
69545;BMP180;56766;52.260;20.746;2022-12-10T05:19:18;99482.20;;;0.60
69545;BMP180;56766;52.260;20.746;2022-12-10T05:21:46;99488.60;;;0.60
69545;BMP180;56766;52.260;20.746;2022-12-10T05:24:32;99489.20;;;0.60
69545;BMP180;56766;52.260;20.746;2022-12-10T05:26:58;99492.60;;;0.60
69545;BMP180;56766;52.260;20.746;2022-12-10T05:29:25;99492.20;;;0.60
69545;BMP180;56766;52.260;20.746;2022-12-10T05:31:52;99494.20;;;0.62
69545;BMP180;56766;52.260;20.746;2022-12-10T05:34:19;99499.00;;;0.62
69545;BMP180;56766;52.260;20.746;2022-12-10T05:36:45;99495.40;;;0.60
69545;BMP180;56766;52.260;20.746;2022-12-10T05:39:12;99505.80;;;0.60
69545;BMP180;56766;52.260;20.746;2022-12-10T05:41:40;99501.80;;;0.66
69545;BMP180;56766;52.260;20.746;2022-12-10T05:44:09;99499.00;;;0.70
69545;BMP180;56766;52.260;20.746;2022-12-10T05:46:37;99504.80;;;0.70
69545;BMP180;56766;52.260;20.746;2022-12-10T05:49:06;99504.00;;;0.70
69545;BMP180;56766;52.260;20.746;2022-12-10T05:51:37;99497.80;;;0.68
69545;BMP180;56766;52.260;20.746;2022-12-10T05:54:06;99495.60;;;0.60
69545;BMP180;56766;52.260;20.746;2022-12-10T05:56:35;99492.60;;;0.60
69545;BMP180;56766;52.260;20.746;2022-12-10T05:59:04;99493.20;;;0.60
69545;BMP180;56766;52.260;20.746;2022-12-10T06:01:34;99497.60;;;0.60
69545;BMP180;56766;52.260;20.746;2022-12-10T06:04:04;99497.60;;;0.52
69545;BMP180;56766;52.260;20.746;2022-12-10T06:06:35;99503.60;;;0.50
69545;BMP180;56766;52.260;20.746;2022-12-10T06:09:05;99504.60;;;0.50
69545;BMP180;56766;52.260;20.746;2022-12-10T06:11:33;99507.60;;;0.50
69545;BMP180;56766;52.260;20.746;2022-12-10T06:14:00;99507.20;;;0.40
69545;BMP180;56766;52.260;20.746;2022-12-10T06:16:29;99508.40;;;0.40
69545;BMP180;56766;52.260;20.746;2022-12-10T06:18:57;99500.20;;;0.38
69545;BMP180;56766;52.260;20.746;2022-12-10T06:21:25;99510.40;;;0.30
69545;BMP180;56766;52.260;20.746;2022-12-10T06:23:53;99511.00;;;0.30
69545;BMP180;56766;52.260;20.746;2022-12-10T06:26:25;99517.00;;;0.30
69545;BMP180;56766;52.260;20.746;2022-12-10T06:28:53;99520.00;;;0.40
69545;BMP180;56766;52.260;20.746;2022-12-10T06:31:21;99523.40;;;0.40
69545;BMP180;56766;52.260;20.746;2022-12-10T06:33:50;99526.60;;;0.40
69545;BMP180;56766;52.260;20.746;2022-12-10T06:36:19;99527.00;;;0.38
69545;BMP180;56766;52.260;20.746;2022-12-10T06:38:47;99530.00;;;0.32
69545;BMP180;56766;52.260;20.746;2022-12-10T06:41:17;99532.40;;;0.30
69545;BMP180;56766;52.260;20.746;2022-12-10T06:43:44;99531.20;;;0.30
69545;BMP180;56766;52.260;20.746;2022-12-10T06:46:15;99530.80;;;0.36
69545;BMP180;56766;52.260;20.746;2022-12-10T06:48:43;99534.80;;;0.40
69545;BMP180;56766;52.260;20.746;2022-12-10T06:51:13;99541.60;;;0.40
69545;BMP180;56766;52.260;20.746;2022-12-10T06:53:41;99539.00;;;0.40
69545;BMP180;56766;52.260;20.746;2022-12-10T06:56:18;99545.60;;;0.40
69545;BMP180;56766;52.260;20.746;2022-12-10T06:58:47;99545.20;;;0.40
69545;BMP180;56766;52.260;20.746;2022-12-10T07:01:23;99543.00;;;0.42
69545;BMP180;56766;52.260;20.746;2022-12-10T07:03:56;99545.80;;;0.44
69545;BMP180;56766;52.260;20.746;2022-12-10T07:06:25;99546.00;;;0.40
69545;BMP180;56766;52.260;20.746;2022-12-10T07:08:52;99544.20;;;0.50
69545;BMP180;56766;52.260;20.746;2022-12-10T07:11:22;99540.40;;;0.42
69545;BMP180;56766;52.260;20.746;2022-12-10T07:13:50;99541.20;;;0.40
69545;BMP180;56766;52.260;20.746;2022-12-10T07:16:27;99537.20;;;0.40
69545;BMP180;56766;52.260;20.746;2022-12-10T07:18:57;99533.60;;;0.40
69545;BMP180;56766;52.260;20.746;2022-12-10T07:24:00;99539.60;;;0.50
69545;BMP180;56766;52.260;20.746;2022-12-10T07:26:34;99539.60;;;0.50
69545;BMP180;56766;52.260;20.746;2022-12-10T07:29:04;99536.20;;;0.52
69545;BMP180;56766;52.260;20.746;2022-12-10T07:31:35;99534.20;;;0.52
69545;BMP180;56766;52.260;20.746;2022-12-10T07:34:02;99538.20;;;0.50
69545;BMP180;56766;52.260;20.746;2022-12-10T07:36:30;99542.20;;;0.54
69545;BMP180;56766;52.260;20.746;2022-12-10T07:38:57;99545.00;;;0.54
69545;BMP180;56766;52.260;20.746;2022-12-10T07:41:24;99546.40;;;0.52
69545;BMP180;56766;52.260;20.746;2022-12-10T07:43:52;99547.20;;;0.58
69545;BMP180;56766;52.260;20.746;2022-12-10T07:46:26;99548.00;;;0.60
69545;BMP180;56766;52.260;20.746;2022-12-10T07:48:53;99546.80;;;0.60
69545;BMP180;56766;52.260;20.746;2022-12-10T07:51:22;99554.00;;;0.60
69545;BMP180;56766;52.260;20.746;2022-12-10T07:53:52;99559.00;;;0.60
69545;BMP180;56766;52.260;20.746;2022-12-10T07:56:21;99545.60;;;0.62
69545;BMP180;56766;52.260;20.746;2022-12-10T07:58:49;99540.20;;;0.62
69545;BMP180;56766;52.260;20.746;2022-12-10T08:01:21;99541.20;;;0.64
69545;BMP180;56766;52.260;20.746;2022-12-10T08:03:54;99545.40;;;0.70
69545;BMP180;56766;52.260;20.746;2022-12-10T08:06:28;99542.00;;;0.70
69545;BMP180;56766;52.260;20.746;2022-12-10T08:08:59;99543.40;;;0.70
69545;BMP180;56766;52.260;20.746;2022-12-10T08:11:27;99538.00;;;0.70
69545;BMP180;56766;52.260;20.746;2022-12-10T08:13:55;99540.00;;;0.70
69545;BMP180;56766;52.260;20.746;2022-12-10T08:16:25;99548.20;;;0.70
69545;BMP180;56766;52.260;20.746;2022-12-10T08:18:59;99546.40;;;0.70
69545;BMP180;56766;52.260;20.746;2022-12-10T08:21:31;99544.20;;;0.70
69545;BMP180;56766;52.260;20.746;2022-12-10T08:23:59;99543.00;;;0.70
69545;BMP180;56766;52.260;20.746;2022-12-10T08:26:31;99544.60;;;0.70
69545;BMP180;56766;52.260;20.746;2022-12-10T08:28:59;99544.60;;;0.72
69545;BMP180;56766;52.260;20.746;2022-12-10T08:31:27;99535.00;;;0.80
69545;BMP180;56766;52.260;20.746;2022-12-10T08:33:55;99531.20;;;0.80
69545;BMP180;56766;52.260;20.746;2022-12-10T08:36:22;99536.40;;;0.80
69545;BMP180;56766;52.260;20.746;2022-12-10T08:38:49;99540.60;;;0.80
69545;BMP180;56766;52.260;20.746;2022-12-10T08:41:21;99534.00;;;0.80
69545;BMP180;56766;52.260;20.746;2022-12-10T08:43:51;99546.60;;;0.90
69545;BMP180;56766;52.260;20.746;2022-12-10T08:46:18;99542.20;;;0.92
69545;BMP180;56766;52.260;20.746;2022-12-10T08:48:44;99549.20;;;1.00
69545;BMP180;56766;52.260;20.746;2022-12-10T08:51:15;99546.40;;;1.00
69545;BMP180;56766;52.260;20.746;2022-12-10T08:53:43;99544.40;;;1.00
69545;BMP180;56766;52.260;20.746;2022-12-10T08:56:11;99550.80;;;1.00
69545;BMP180;56766;52.260;20.746;2022-12-10T08:58:39;99548.20;;;1.00
69545;BMP180;56766;52.260;20.746;2022-12-10T09:01:15;99555.60;;;1.00
69545;BMP180;56766;52.260;20.746;2022-12-10T09:03:43;99560.80;;;1.00
69545;BMP180;56766;52.260;20.746;2022-12-10T09:06:18;99557.00;;;1.04
69545;BMP180;56766;52.260;20.746;2022-12-10T09:08:46;99554.60;;;1.02
69545;BMP180;56766;52.260;20.746;2022-12-10T09:11:22;99559.60;;;1.10
69545;BMP180;56766;52.260;20.746;2022-12-10T09:13:49;99558.40;;;1.10
69545;BMP180;56766;52.260;20.746;2022-12-10T09:16:17;99569.60;;;1.10
69545;BMP180;56766;52.260;20.746;2022-12-10T09:18:44;99572.00;;;1.10
69545;BMP180;56766;52.260;20.746;2022-12-10T09:21:15;99574.40;;;1.10
69545;BMP180;56766;52.260;20.746;2022-12-10T09:23:43;99571.60;;;1.10
69545;BMP180;56766;52.260;20.746;2022-12-10T09:26:14;99569.20;;;1.12
69545;BMP180;56766;52.260;20.746;2022-12-10T09:28:42;99567.80;;;1.18
69545;BMP180;56766;52.260;20.746;2022-12-10T09:31:11;99564.80;;;1.16
69545;BMP180;56766;52.260;20.746;2022-12-10T09:33:39;99555.40;;;1.20
69545;BMP180;56766;52.260;20.746;2022-12-10T09:36:09;99556.40;;;1.20
69545;BMP180;56766;52.260;20.746;2022-12-10T09:38:39;99556.60;;;1.20
69545;BMP180;56766;52.260;20.746;2022-12-10T09:44:40;99549.00;;;1.10
69545;BMP180;56766;52.260;20.746;2022-12-10T09:47:10;99548.00;;;1.20
69545;BMP180;56766;52.260;20.746;2022-12-10T09:52:40;99545.20;;;1.28
69545;BMP180;56766;52.260;20.746;2022-12-10T09:55:22;99552.40;;;1.30
69545;BMP180;56766;52.260;20.746;2022-12-10T09:57:53;99558.60;;;1.30
69545;BMP180;56766;52.260;20.746;2022-12-10T10:00:37;99549.60;;;1.30
69545;BMP180;56766;52.260;20.746;2022-12-10T10:03:06;99561.40;;;1.30
69545;BMP180;56766;52.260;20.746;2022-12-10T10:05:50;99563.60;;;1.40
69545;BMP180;56766;52.260;20.746;2022-12-10T10:08:44;99571.20;;;1.36
69545;BMP180;56766;52.260;20.746;2022-12-10T10:11:22;99573.40;;;1.40
69545;BMP180;56766;52.260;20.746;2022-12-10T10:13:58;99569.20;;;1.40
69545;BMP180;56766;52.260;20.746;2022-12-10T10:16:40;99568.80;;;1.40
69545;BMP180;56766;52.260;20.746;2022-12-10T10:19:17;99563.20;;;1.40
69545;BMP180;56766;52.260;20.746;2022-12-10T10:21:48;99571.60;;;1.40
69545;BMP180;56766;52.260;20.746;2022-12-10T10:24:22;99574.20;;;1.40
69545;BMP180;56766;52.260;20.746;2022-12-10T10:26:53;99576.00;;;1.42
69545;BMP180;56766;52.260;20.746;2022-12-10T10:29:23;99570.60;;;1.50
69545;BMP180;56766;52.260;20.746;2022-12-10T10:32:16;99570.60;;;1.50
69545;BMP180;56766;52.260;20.746;2022-12-10T10:34:46;99572.00;;;1.50
69545;BMP180;56766;52.260;20.746;2022-12-10T10:37:41;99563.40;;;1.50
69545;BMP180;56766;52.260;20.746;2022-12-10T10:40:28;99564.20;;;1.50
69545;BMP180;56766;52.260;20.746;2022-12-10T10:42:59;99565.40;;;1.60
69545;BMP180;56766;52.260;20.746;2022-12-10T10:45:47;99554.60;;;1.60
69545;BMP180;56766;52.260;20.746;2022-12-10T10:48:22;99549.60;;;1.60
69545;BMP180;56766;52.260;20.746;2022-12-10T10:51:05;99552.00;;;1.60
69545;BMP180;56766;52.260;20.746;2022-12-10T10:53:42;99543.40;;;1.60
69545;BMP180;56766;52.260;20.746;2022-12-10T11:01:42;99523.40;;;1.62
69545;BMP180;56766;52.260;20.746;2022-12-10T11:04:10;99518.80;;;1.70
69545;BMP180;56766;52.260;20.746;2022-12-10T11:06:44;99510.20;;;1.60
69545;BMP180;56766;52.260;20.746;2022-12-10T11:09:24;99522.60;;;1.60
69545;BMP180;56766;52.260;20.746;2022-12-10T11:12:20;99510.60;;;1.60
69545;BMP180;56766;52.260;20.746;2022-12-10T11:14:48;99514.20;;;1.60
69545;BMP180;56766;52.260;20.746;2022-12-10T11:22:30;99507.20;;;1.60
69545;BMP180;56766;52.260;20.746;2022-12-10T11:24:59;99499.60;;;1.60
69545;BMP180;56766;52.260;20.746;2022-12-10T11:28:01;99501.00;;;1.50
69545;BMP180;56766;52.260;20.746;2022-12-10T11:31:22;99498.80;;;1.50
69545;BMP180;56766;52.260;20.746;2022-12-10T11:34:07;99495.60;;;1.50
69545;BMP180;56766;52.260;20.746;2022-12-10T11:37:03;99490.40;;;1.50
69545;BMP180;56766;52.260;20.746;2022-12-10T11:51:33;99498.20;;;1.54
69545;BMP180;56766;52.260;20.746;2022-12-10T11:57:34;99513.40;;;1.54
69545;BMP180;56766;52.260;20.746;2022-12-10T12:14:53;99529.40;;;1.40
69545;BMP180;56766;52.260;20.746;2022-12-10T12:17:31;99531.80;;;1.40
69545;BMP180;56766;52.260;20.746;2022-12-10T12:20:14;99522.20;;;1.40
69545;BMP180;56766;52.260;20.746;2022-12-10T12:22:58;99526.60;;;1.40
69545;BMP180;56766;52.260;20.746;2022-12-10T12:25:46;99525.60;;;1.40
69545;BMP180;56766;52.260;20.746;2022-12-10T12:28:24;99532.20;;;1.38
69545;BMP180;56766;52.260;20.746;2022-12-10T12:31:09;99526.40;;;1.30
69545;BMP180;56766;52.260;20.746;2022-12-10T12:33:55;99520.80;;;1.30
69545;BMP180;56766;52.260;20.746;2022-12-10T12:36:30;99523.00;;;1.30
69545;BMP180;56766;52.260;20.746;2022-12-10T12:39:17;99518.40;;;1.30
69545;BMP180;56766;52.260;20.746;2022-12-10T12:47:49;99526.80;;;1.22
69545;BMP180;56766;52.260;20.746;2022-12-10T12:53:12;99519.60;;;1.30
69545;BMP180;56766;52.260;20.746;2022-12-10T12:59:31;99526.60;;;1.30
69545;BMP180;56766;52.260;20.746;2022-12-10T13:04:43;99545.60;;;1.30
69545;BMP180;56766;52.260;20.746;2022-12-10T13:12:48;99562.80;;;1.40
69545;BMP180;56766;52.260;20.746;2022-12-10T13:15:38;99562.80;;;1.40
69545;BMP180;56766;52.260;20.746;2022-12-10T13:21:26;99573.60;;;1.30
69545;BMP180;56766;52.260;20.746;2022-12-10T13:24:09;99584.60;;;1.30
69545;BMP180;56766;52.260;20.746;2022-12-10T13:27:03;99581.60;;;1.30
69545;BMP180;56766;52.260;20.746;2022-12-10T13:29:55;99584.00;;;1.30
69545;BMP180;56766;52.260;20.746;2022-12-10T13:37:56;99591.40;;;1.22
69545;BMP180;56766;52.260;20.746;2022-12-10T13:40:36;99591.40;;;1.20
69545;BMP180;56766;52.260;20.746;2022-12-10T13:48:53;99601.40;;;1.24
69545;BMP180;56766;52.260;20.746;2022-12-10T13:51:46;99597.40;;;1.22
69545;BMP180;56766;52.260;20.746;2022-12-10T13:57:25;99598.40;;;1.20
69545;BMP180;56766;52.260;20.746;2022-12-10T14:00:08;99597.20;;;1.18
69545;BMP180;56766;52.260;20.746;2022-12-10T14:06:04;99582.80;;;1.10
69545;BMP180;56766;52.260;20.746;2022-12-10T14:08:40;99577.20;;;1.16
69545;BMP180;56766;52.260;20.746;2022-12-10T14:11:22;99578.20;;;1.10
69545;BMP180;56766;52.260;20.746;2022-12-10T14:13:56;99579.80;;;1.14
69545;BMP180;56766;52.260;20.746;2022-12-10T14:16:31;99576.00;;;1.14
69545;BMP180;56766;52.260;20.746;2022-12-10T14:19:14;99573.60;;;1.10
69545;BMP180;56766;52.260;20.746;2022-12-10T14:21:45;99582.60;;;1.12
69545;BMP180;56766;52.260;20.746;2022-12-10T14:24:37;99587.60;;;1.10
69545;BMP180;56766;52.260;20.746;2022-12-10T14:27:16;99588.60;;;1.04
69545;BMP180;56766;52.260;20.746;2022-12-10T14:29:50;99591.60;;;1.00
69545;BMP180;56766;52.260;20.746;2022-12-10T14:32:27;99594.00;;;1.00
69545;BMP180;56766;52.260;20.746;2022-12-10T14:34:58;99589.00;;;0.90
69545;BMP180;56766;52.260;20.746;2022-12-10T14:37:34;99585.00;;;0.90
69545;BMP180;56766;52.260;20.746;2022-12-10T14:40:05;99582.00;;;0.90
69545;BMP180;56766;52.260;20.746;2022-12-10T14:42:37;99584.40;;;0.90
69545;BMP180;56766;52.260;20.746;2022-12-10T14:45:06;99582.40;;;0.90
69545;BMP180;56766;52.260;20.746;2022-12-10T14:47:39;99578.20;;;0.88
69545;BMP180;56766;52.260;20.746;2022-12-10T14:50:12;99581.40;;;0.80
69545;BMP180;56766;52.260;20.746;2022-12-10T14:52:51;99577.40;;;0.80
69545;BMP180;56766;52.260;20.746;2022-12-10T14:55:23;99580.00;;;0.80
69545;BMP180;56766;52.260;20.746;2022-12-10T14:58:01;99573.80;;;0.80
69545;BMP180;56766;52.260;20.746;2022-12-10T15:00:31;99581.00;;;0.80
69545;BMP180;56766;52.260;20.746;2022-12-10T15:03:06;99586.40;;;0.76
69545;BMP180;56766;52.260;20.746;2022-12-10T15:05:36;99583.00;;;0.76
69545;BMP180;56766;52.260;20.746;2022-12-10T15:08:15;99579.60;;;0.78
69545;BMP180;56766;52.260;20.746;2022-12-10T15:10:55;99589.20;;;0.70
69545;BMP180;56766;52.260;20.746;2022-12-10T15:15:59;99562.60;;;0.70
69545;BMP180;56766;52.260;20.746;2022-12-10T15:18:37;99560.00;;;0.70
69545;BMP180;56766;52.260;20.746;2022-12-10T15:23:35;99570.00;;;0.70
69545;BMP180;56766;52.260;20.746;2022-12-10T15:26:27;99568.00;;;0.70
69545;BMP180;56766;52.260;20.746;2022-12-10T15:32:45;99565.60;;;0.62
69545;BMP180;56766;52.260;20.746;2022-12-10T15:34:58;99574.00;;;0.60
69545;BMP180;56766;52.260;20.746;2022-12-10T15:37:33;99584.20;;;0.60
69545;BMP180;56766;52.260;20.746;2022-12-10T15:40:23;99592.80;;;0.60
69545;BMP180;56766;52.260;20.746;2022-12-10T15:42:50;99584.40;;;0.60
69545;BMP180;56766;52.260;20.746;2022-12-10T15:45:40;99594.20;;;0.50
69545;BMP180;56766;52.260;20.746;2022-12-10T15:48:12;99600.60;;;0.50
69545;BMP180;56766;52.260;20.746;2022-12-10T15:50:43;99599.00;;;0.50
69545;BMP180;56766;52.260;20.746;2022-12-10T15:53:14;99597.40;;;0.50
69545;BMP180;56766;52.260;20.746;2022-12-10T15:55:42;99593.20;;;0.50
69545;BMP180;56766;52.260;20.746;2022-12-10T15:58:14;99597.60;;;0.40
69545;BMP180;56766;52.260;20.746;2022-12-10T16:00:41;99597.60;;;0.40
69545;BMP180;56766;52.260;20.746;2022-12-10T16:03:13;99591.00;;;0.40
69545;BMP180;56766;52.260;20.746;2022-12-10T16:05:41;99609.80;;;0.40
69545;BMP180;56766;52.260;20.746;2022-12-10T16:08:24;99612.60;;;0.40
69545;BMP180;56766;52.260;20.746;2022-12-10T16:10:57;99612.40;;;0.36
69545;BMP180;56766;52.260;20.746;2022-12-10T16:13:36;99611.20;;;0.34
69545;BMP180;56766;52.260;20.746;2022-12-10T16:16:10;99618.80;;;0.30
69545;BMP180;56766;52.260;20.746;2022-12-10T16:18:36;99624.60;;;0.30
69545;BMP180;56766;52.260;20.746;2022-12-10T16:21:06;99613.60;;;0.30
69545;BMP180;56766;52.260;20.746;2022-12-10T16:23:35;99617.40;;;0.30
69545;BMP180;56766;52.260;20.746;2022-12-10T16:26:20;99623.80;;;0.30
69545;BMP180;56766;52.260;20.746;2022-12-10T16:28:49;99614.40;;;0.30
69545;BMP180;56766;52.260;20.746;2022-12-10T16:31:19;99613.80;;;0.40
69545;BMP180;56766;52.260;20.746;2022-12-10T16:33:47;99613.60;;;0.40
69545;BMP180;56766;52.260;20.746;2022-12-10T16:36:15;99623.40;;;0.40